createdAt,value
2018-05-23T00:00:39.461Z,86.01
2018-05-23T00:01:39.391Z,86.01
2018-05-23T00:02:39.306Z,86.78
2018-05-23T00:03:39.250Z,86.97
2018-05-23T00:04:39.171Z,86.97
2018-05-23T00:05:39.102Z,87.02
2018-05-23T00:06:39.022Z,86.68
2018-05-23T00:07:38.956Z,86.78
2018-05-23T00:08:38.882Z,86.21
2018-05-23T00:09:38.816Z,85.53
2018-05-23T00:10:38.739Z,86.21
2018-05-23T00:11:38.671Z,85.88
2018-05-23T00:12:38.589Z,86.35
2018-05-23T00:13:38.527Z,85.63
2018-05-23T00:14:38.447Z,85.25
2018-05-23T00:15:38.386Z,84.67
2018-05-23T00:16:38.305Z,85.49
2018-05-23T00:17:38.239Z,85.78
2018-05-23T00:18:38.159Z,85.49
2018-05-23T00:19:38.095Z,86.93
2018-05-23T00:20:38.017Z,87.79
2018-05-23T00:21:37.952Z,87.50
2018-05-23T00:22:37.870Z,87.50
2018-05-23T00:23:37.818Z,87.70
2018-05-23T00:24:37.733Z,87.31
2018-05-23T00:25:37.681Z,87.41
2018-05-23T00:26:37.585Z,86.93
2018-05-23T00:27:37.523Z,87.02
2018-05-23T00:28:37.434Z,87.60
2018-05-23T00:29:37.380Z,86.93
2018-05-23T00:30:37.303Z,87.31
2018-05-23T00:31:37.235Z,86.93
2018-05-23T00:32:37.151Z,85.88
2018-05-23T00:33:38.089Z,85.11
2018-05-23T00:34:37.008Z,85.49
2018-05-23T00:35:36.940Z,87.79
2018-05-23T00:36:36.862Z,87.41
2018-05-23T00:37:36.801Z,86.83
2018-05-23T00:38:36.719Z,86.45
2018-05-23T00:39:36.653Z,86.45
2018-05-23T00:40:36.582Z,86.16
2018-05-23T00:41:36.511Z,86.16
2018-05-23T00:42:36.431Z,86.35
2018-05-23T00:43:36.367Z,86.25
2018-05-23T00:44:36.285Z,85.68
2018-05-23T00:45:36.223Z,86.25
2018-05-23T00:46:36.146Z,87.31
2018-05-23T00:47:36.163Z,87.31
2018-05-23T00:48:35.997Z,87.50
2018-05-23T00:49:35.931Z,87.79
2018-05-23T00:50:35.855Z,87.60
2018-05-23T00:51:35.789Z,87.31
2018-05-23T00:52:35.710Z,87.02
2018-05-23T00:53:35.652Z,87.12
2018-05-23T00:54:35.566Z,87.88
2018-05-23T00:55:35.499Z,87.70
2018-05-23T00:56:35.424Z,87.60
2018-05-23T00:57:35.354Z,87.12
2018-05-23T00:58:35.273Z,87.88
2018-05-23T00:59:35.210Z,87.98
2018-05-23T01:00:35.132Z,87.60
2018-05-23T01:01:35.068Z,87.12
2018-05-23T01:02:34.992Z,86.93
2018-05-23T01:03:35.925Z,87.12
2018-05-23T01:04:34.845Z,86.54
2018-05-23T01:05:34.777Z,86.54
2018-05-23T01:06:34.699Z,86.64
2018-05-23T01:07:34.640Z,86.16
2018-05-23T01:08:34.555Z,85.11
2018-05-23T01:09:34.493Z,84.82
2018-05-23T01:10:34.416Z,85.21
2018-05-23T01:11:34.341Z,85.58
2018-05-23T01:12:34.266Z,85.49
2018-05-23T01:13:34.210Z,85.30
2018-05-23T01:14:34.135Z,85.11
2018-05-23T01:15:34.060Z,85.68
2018-05-23T01:16:33.977Z,85.68
2018-05-23T01:17:33.919Z,85.44
2018-05-23T01:18:33.840Z,86.25
2018-05-23T01:19:33.768Z,87.12
2018-05-23T01:20:33.688Z,86.07
2018-05-23T01:21:33.628Z,85.30
2018-05-23T01:22:33.551Z,86.25
2018-05-23T01:23:33.477Z,86.16
2018-05-23T01:24:33.401Z,86.35
2018-05-23T01:25:33.331Z,86.16
2018-05-23T01:26:33.251Z,85.97
2018-05-23T01:27:33.192Z,85.39
2018-05-23T01:28:33.112Z,85.21
2018-05-23T01:29:33.044Z,85.78
2018-05-23T01:30:32.967Z,85.30
2018-05-23T01:31:32.906Z,85.11
2018-05-23T01:32:32.819Z,85.11
2018-05-23T01:33:32.766Z,85.30
2018-05-23T01:34:32.677Z,84.82
2018-05-23T01:35:32.620Z,84.72
2018-05-23T01:36:32.536Z,85.30
2018-05-23T01:37:32.462Z,85.25
2018-05-23T01:38:32.386Z,85.11
2018-05-23T01:39:32.324Z,85.15
2018-05-23T01:40:32.253Z,85.25
2018-05-23T01:41:32.179Z,85.53
2018-05-23T01:42:32.103Z,85.34
2018-05-23T01:43:32.036Z,85.15
2018-05-23T01:44:31.958Z,85.25
2018-05-23T01:45:31.888Z,85.44
2018-05-23T01:46:31.808Z,84.95
2018-05-23T01:47:31.746Z,85.15
2018-05-23T01:48:31.668Z,85.25
2018-05-23T01:49:31.604Z,84.67
2018-05-23T01:50:31.521Z,84.58
2018-05-23T01:51:31.456Z,84.58
2018-05-23T01:52:31.379Z,84.48
2018-05-23T01:53:31.313Z,84.48
2018-05-23T01:54:31.232Z,85.34
2018-05-23T01:55:31.164Z,85.44
2018-05-23T01:56:31.085Z,85.34
2018-05-23T01:57:31.022Z,85.15
2018-05-23T01:58:30.942Z,85.63
2018-05-23T01:59:30.883Z,85.63
2018-05-23T02:00:30.799Z,85.44
2018-05-23T02:01:30.734Z,85.34
2018-05-23T02:02:30.657Z,85.92
2018-05-23T02:03:30.592Z,86.01
2018-05-23T02:04:30.511Z,85.82
2018-05-23T02:05:30.441Z,85.78
2018-05-23T02:06:30.367Z,85.72
2018-05-23T02:07:30.298Z,86.21
2018-05-23T02:08:30.222Z,86.30
2018-05-23T02:09:30.160Z,85.34
2018-05-23T02:10:30.077Z,86.01
2018-05-23T02:11:30.012Z,86.01
2018-05-23T02:12:29.946Z,85.63
2018-05-23T02:13:29.868Z,85.63
2018-05-23T02:14:29.786Z,86.01
2018-05-23T02:15:29.720Z,86.11
2018-05-23T02:16:29.647Z,86.30
2018-05-23T02:17:29.578Z,86.01
2018-05-23T02:18:29.497Z,86.21
2018-05-23T02:19:29.432Z,85.68
2018-05-23T02:20:29.350Z,85.58
2018-05-23T02:21:29.288Z,86.16
2018-05-23T02:22:29.217Z,85.97
2018-05-23T02:23:29.151Z,86.83
2018-05-23T02:24:29.071Z,86.83
2018-05-23T02:25:30.002Z,87.12
2018-05-23T02:26:28.922Z,86.83
2018-05-23T02:27:28.857Z,86.93
2018-05-23T02:28:28.774Z,87.41
2018-05-23T02:29:28.712Z,87.50
2018-05-23T02:30:28.638Z,87.21
2018-05-23T02:31:28.567Z,86.88
2018-05-23T02:32:28.493Z,87.50
2018-05-23T02:33:28.417Z,87.70
2018-05-23T02:34:28.345Z,87.41
2018-05-23T02:35:28.277Z,87.46
2018-05-23T02:36:28.197Z,87.46
2018-05-23T02:37:28.131Z,86.79
2018-05-23T02:38:28.051Z,86.79
2018-05-23T02:39:27.987Z,87.46
2018-05-23T02:40:27.908Z,87.94
2018-05-23T02:41:27.842Z,88.32
2018-05-23T02:42:27.765Z,88.37
2018-05-23T02:43:27.701Z,88.85
2018-05-23T02:44:27.616Z,89.33
2018-05-23T02:45:27.555Z,89.72
2018-05-23T02:46:27.471Z,90.39
2018-05-23T02:47:27.407Z,90.58
2018-05-23T02:48:27.323Z,90.67
2018-05-23T02:49:27.272Z,90.19
2018-05-23T02:50:27.189Z,90.39
2018-05-23T02:51:27.119Z,90.29
2018-05-23T02:52:27.039Z,88.66
2018-05-23T02:53:26.972Z,89.14
2018-05-23T02:54:26.893Z,89.90
2018-05-23T02:55:26.836Z,90.48
2018-05-23T02:56:26.747Z,90.77
2018-05-23T02:57:26.681Z,90.82
2018-05-23T02:58:26.600Z,91.34
2018-05-23T02:59:26.531Z,91.30
2018-05-23T03:00:26.457Z,91.39
2018-05-23T03:01:26.397Z,91.97
2018-05-23T03:02:26.308Z,92.54
2018-05-23T03:03:26.247Z,92.92
2018-05-23T03:04:26.167Z,92.21
2018-05-23T03:05:26.102Z,92.44
2018-05-23T03:06:26.020Z,91.72
2018-05-23T03:07:25.953Z,91.63
2018-05-23T03:08:25.872Z,91.53
2018-05-23T03:09:25.807Z,91.15
2018-05-23T03:10:25.732Z,91.82
2018-05-23T03:11:25.660Z,91.15
2018-05-23T03:12:25.588Z,91.72
2018-05-23T03:13:25.519Z,91.44
2018-05-23T03:14:25.436Z,87.66
2018-05-23T03:15:25.371Z,86.70
2018-05-23T03:16:25.291Z,86.41
2018-05-23T03:17:25.231Z,87.56
2018-05-23T03:18:25.144Z,88.57
2018-05-23T03:19:25.081Z,89.34
2018-05-23T03:20:24.999Z,90.10
2018-05-23T03:21:24.933Z,90.87
2018-05-23T03:22:24.852Z,92.49
2018-05-23T03:23:24.785Z,95.17
2018-05-23T03:24:24.710Z,96.03
2018-05-23T03:25:24.640Z,97.08
2018-05-23T03:26:24.559Z,96.80
2018-05-23T03:27:24.495Z,96.80
2018-05-23T03:28:24.419Z,96.94
2018-05-23T03:29:24.352Z,96.61
2018-05-23T03:30:24.267Z,96.70
2018-05-23T03:31:25.205Z,96.80
2018-05-23T03:32:24.124Z,96.32
2018-05-23T03:33:24.060Z,95.84
2018-05-23T03:34:23.993Z,95.84
2018-05-23T03:35:23.913Z,95.65
2018-05-23T03:36:23.827Z,94.79
2018-05-23T03:37:23.763Z,95.17
2018-05-23T03:38:23.684Z,94.89
2018-05-23T03:39:23.619Z,94.26
2018-05-23T03:40:23.538Z,93.88
2018-05-23T03:41:23.468Z,93.69
2018-05-23T03:42:23.390Z,93.88
2018-05-23T03:43:23.324Z,93.21
2018-05-23T03:44:23.244Z,92.16
2018-05-23T03:45:23.176Z,91.39
2018-05-23T03:46:23.098Z,91.77
2018-05-23T03:47:23.031Z,91.68
2018-05-23T03:48:22.952Z,91.77
2018-05-23T03:49:22.887Z,92.73
2018-05-23T03:50:22.805Z,92.35
2018-05-23T03:51:22.741Z,91.44
2018-05-23T03:52:22.667Z,89.67
2018-05-23T03:53:22.590Z,89.86
2018-05-23T03:54:22.508Z,90.05
2018-05-23T03:55:22.487Z,90.72
2018-05-23T03:56:22.364Z,91.25
2018-05-23T03:57:22.304Z,91.63
2018-05-23T03:58:22.220Z,91.83
2018-05-23T03:59:22.152Z,92.06
2018-05-23T04:00:22.073Z,92.59
2018-05-23T04:01:22.006Z,92.40
2018-05-23T04:02:21.930Z,93.16
2018-05-23T04:03:21.858Z,93.16
2018-05-23T04:04:21.779Z,93.45
2018-05-23T04:05:21.785Z,94.12
2018-05-23T04:06:21.627Z,93.84
2018-05-23T04:07:22.620Z,94.26
2018-05-23T04:08:21.483Z,94.41
2018-05-23T04:09:21.424Z,94.89
2018-05-23T04:10:21.343Z,94.79
2018-05-23T04:11:21.316Z,94.98
2018-05-23T04:12:21.188Z,94.89
2018-05-23T04:13:21.225Z,94.70
2018-05-23T04:14:21.042Z,95.07
2018-05-23T04:15:21.045Z,94.70
2018-05-23T04:16:20.898Z,95.41
2018-05-23T04:17:20.831Z,94.89
2018-05-23T04:18:20.747Z,94.79
2018-05-23T04:19:20.755Z,94.79
2018-05-23T04:20:20.600Z,95.03
2018-05-23T04:21:20.569Z,94.89
2018-05-23T04:22:20.459Z,94.79
2018-05-23T04:23:20.479Z,95.03
2018-05-23T04:24:20.312Z,94.74
2018-05-23T04:25:20.282Z,94.79
2018-05-23T04:26:20.161Z,94.21
2018-05-23T04:27:20.197Z,94.02
2018-05-23T04:28:20.018Z,93.84
2018-05-23T04:29:20.001Z,93.88
2018-05-23T04:30:19.866Z,94.07
2018-05-23T04:31:19.808Z,93.88
2018-05-23T04:32:19.724Z,94.36
2018-05-23T04:33:20.662Z,94.45
2018-05-23T04:34:19.574Z,94.41
2018-05-23T04:35:19.509Z,95.17
2018-05-23T04:36:19.433Z,95.36
2018-05-23T04:37:19.445Z,95.94
2018-05-23T04:38:19.282Z,95.84
2018-05-23T04:39:19.306Z,95.94
2018-05-23T04:40:19.135Z,95.84
2018-05-23T04:41:19.171Z,96.32
2018-05-23T04:42:18.986Z,96.22
2018-05-23T04:43:19.997Z,96.13
2018-05-23T04:44:18.842Z,96.13
2018-05-23T04:45:18.887Z,96.61
2018-05-23T04:46:18.698Z,95.94
2018-05-23T04:47:18.692Z,95.56
2018-05-23T04:48:18.551Z,94.70
2018-05-23T04:49:18.484Z,94.70
2018-05-23T04:50:18.403Z,94.60
2018-05-23T04:51:18.412Z,95.17
2018-05-23T04:52:18.257Z,95.75
2018-05-23T04:53:18.220Z,95.84
2018-05-23T04:54:18.116Z,96.42
2018-05-23T04:55:18.131Z,96.22
2018-05-23T04:56:17.961Z,96.89
2018-05-23T04:57:17.940Z,95.94
2018-05-23T04:58:17.811Z,95.84
2018-05-23T04:59:17.852Z,95.94
2018-05-23T05:00:17.663Z,95.27
2018-05-23T05:01:17.662Z,95.36
2018-05-23T05:02:17.521Z,95.03
2018-05-23T05:03:17.471Z,95.07
2018-05-23T05:04:17.374Z,96.03
2018-05-23T05:05:17.381Z,95.65
2018-05-23T05:06:17.227Z,96.08
2018-05-23T05:07:17.186Z,96.99
2018-05-23T05:08:17.082Z,96.89
2018-05-23T05:09:17.105Z,96.80
2018-05-23T05:10:16.928Z,96.99
2018-05-23T05:11:16.865Z,96.80
2018-05-23T05:12:16.784Z,96.56
2018-05-23T05:13:16.765Z,96.03
2018-05-23T05:14:16.659Z,96.08
2018-05-23T05:15:16.630Z,95.89
2018-05-23T05:16:16.494Z,96.08
2018-05-23T05:17:16.429Z,96.18
2018-05-23T05:18:16.345Z,96.08
2018-05-23T05:19:16.280Z,96.94
2018-05-23T05:20:16.199Z,97.13
2018-05-23T05:21:16.170Z,97.23
2018-05-23T05:22:16.055Z,97.52
2018-05-23T05:23:15.984Z,97.42
2018-05-23T05:24:15.909Z,97.04
2018-05-23T05:25:15.870Z,96.66
2018-05-23T05:26:15.759Z,96.18
2018-05-23T05:27:15.787Z,95.94
2018-05-23T05:28:15.611Z,95.84
2018-05-23T05:29:15.595Z,95.75
2018-05-23T05:30:15.466Z,95.46
2018-05-23T05:31:15.506Z,95.27
2018-05-23T05:32:15.323Z,95.36
2018-05-23T05:33:15.254Z,95.46
2018-05-23T05:34:15.172Z,95.07
2018-05-23T05:35:15.122Z,94.89
2018-05-23T05:36:15.025Z,94.98
2018-05-23T05:37:15.041Z,95.07
2018-05-23T05:38:14.874Z,95.17
2018-05-23T05:39:14.841Z,96.13
2018-05-23T05:40:14.734Z,96.13
2018-05-23T05:41:14.752Z,95.94
2018-05-23T05:42:14.584Z,96.08
2018-05-23T05:43:14.572Z,96.18
2018-05-23T05:44:14.440Z,96.18
2018-05-23T05:45:14.472Z,96.56
2018-05-23T05:46:14.363Z,97.23
2018-05-23T05:47:14.283Z,96.75
2018-05-23T05:48:14.145Z,96.66
2018-05-23T05:49:14.083Z,96.37
2018-05-23T05:50:14.001Z,96.94
2018-05-23T05:51:13.935Z,96.56
2018-05-23T05:52:13.853Z,96.66
2018-05-23T05:53:13.785Z,96.75
2018-05-23T05:54:13.716Z,96.66
2018-05-23T05:55:13.640Z,95.60
2018-05-23T05:56:13.560Z,95.94
2018-05-23T05:57:13.496Z,95.89
2018-05-23T05:58:13.420Z,96.13
2018-05-23T05:59:13.346Z,95.75
2018-05-23T06:00:13.271Z,96.13
2018-05-23T06:01:13.206Z,96.03
2018-05-23T06:02:13.124Z,95.36
2018-05-23T06:03:13.059Z,95.17
2018-05-23T06:04:12.982Z,94.12
2018-05-23T06:05:12.913Z,93.73
2018-05-23T06:06:12.834Z,93.63
2018-05-23T06:07:12.765Z,93.40
2018-05-23T06:08:12.686Z,92.72
2018-05-23T06:09:12.624Z,92.72
2018-05-23T06:10:12.542Z,92.15
2018-05-23T06:11:12.473Z,91.38
2018-05-23T06:12:12.404Z,91.19
2018-05-23T06:13:12.330Z,90.33
2018-05-23T06:14:12.253Z,90.23
2018-05-23T06:15:12.180Z,90.47
2018-05-23T06:16:12.127Z,89.61
2018-05-23T06:17:12.040Z,89.41
2018-05-23T06:18:11.959Z,89.03
2018-05-23T06:19:11.894Z,89.03
2018-05-23T06:20:11.810Z,88.35
2018-05-23T06:21:11.749Z,87.30
2018-05-23T06:22:11.671Z,89.03
2018-05-23T06:23:11.606Z,89.03
2018-05-23T06:24:28.556Z,88.84
2018-05-23T06:25:11.450Z,88.74
2018-05-23T06:26:11.391Z,88.26
2018-05-23T06:27:11.309Z,88.17
2018-05-23T06:28:11.245Z,88.07
2018-05-23T06:29:11.166Z,88.11
2018-05-23T06:30:11.099Z,87.63
2018-05-23T06:31:11.018Z,87.44
2018-05-23T06:32:10.956Z,86.96
2018-05-23T06:33:10.873Z,86.38
2018-05-23T06:34:10.812Z,86.96
2018-05-23T06:35:10.737Z,86.29
2018-05-23T06:36:10.666Z,86.19
2018-05-23T06:37:10.583Z,86.29
2018-05-23T06:38:10.523Z,86.00
2018-05-23T06:39:10.444Z,86.68
2018-05-23T06:40:10.383Z,85.91
2018-05-23T06:41:10.300Z,84.47
2018-05-23T06:42:10.233Z,85.52
2018-05-23T06:43:10.150Z,83.84
2018-05-23T06:44:10.094Z,82.07
2018-05-23T06:45:10.012Z,82.10
2018-05-23T06:46:09.951Z,81.63
2018-05-23T06:47:09.863Z,83.22
2018-05-23T06:48:09.809Z,83.26
2018-05-23T06:49:09.719Z,82.68
2018-05-23T06:50:09.670Z,82.93
2018-05-23T06:51:09.574Z,82.74
2018-05-23T06:52:09.514Z,82.54
2018-05-23T06:53:09.432Z,83.03
2018-05-23T06:54:09.370Z,83.60
2018-05-23T06:55:09.290Z,83.03
2018-05-23T06:56:09.230Z,83.89
2018-05-23T06:57:09.148Z,84.66
2018-05-23T06:58:09.082Z,85.52
2018-05-23T06:59:09.007Z,84.37
2018-05-23T07:00:08.946Z,84.27
2018-05-23T07:01:08.860Z,85.33
2018-05-23T07:02:08.795Z,85.33
2018-05-23T07:03:08.718Z,85.28
2018-05-23T07:04:08.652Z,85.38
2018-05-23T07:05:08.574Z,86.15
2018-05-23T07:06:08.508Z,86.05
2018-05-23T07:07:08.427Z,85.91
2018-05-23T07:08:08.364Z,86.10
2018-05-23T07:09:08.289Z,86.00
2018-05-23T07:10:08.221Z,86.10
2018-05-23T07:11:08.142Z,85.62
2018-05-23T07:12:08.075Z,85.42
2018-05-23T07:13:08.001Z,85.42
2018-05-23T07:14:07.938Z,85.81
2018-05-23T07:15:07.854Z,85.91
2018-05-23T07:16:07.789Z,85.81
2018-05-23T07:17:07.709Z,85.24
2018-05-23T07:18:07.721Z,84.85
2018-05-23T07:19:07.566Z,85.42
2018-05-23T07:20:07.503Z,86.19
2018-05-23T07:21:07.572Z,85.62
2018-05-23T07:22:07.360Z,86.00
2018-05-23T07:23:07.284Z,85.66
2018-05-23T07:24:07.257Z,85.33
2018-05-23T07:25:07.139Z,85.47
2018-05-23T07:26:08.071Z,85.66
2018-05-23T07:27:06.993Z,84.89
2018-05-23T07:28:06.929Z,84.80
2018-05-23T07:29:06.845Z,84.12
2018-05-23T07:30:06.816Z,83.64
2018-05-23T07:31:06.707Z,83.36
2018-05-23T07:32:06.646Z,83.36
2018-05-23T07:33:06.563Z,84.51
2018-05-23T07:34:06.500Z,85.08
2018-05-23T07:35:06.423Z,85.57
2018-05-23T07:36:06.356Z,85.95
2018-05-23T07:37:06.285Z,86.72
2018-05-23T07:38:06.213Z,86.24
2018-05-23T07:39:06.135Z,85.95
2018-05-23T07:40:06.068Z,86.09
2018-05-23T07:41:05.988Z,85.75
2018-05-23T07:42:05.924Z,86.24
2018-05-23T07:43:05.846Z,85.99
2018-05-23T07:44:05.788Z,86.18
2018-05-23T07:45:05.704Z,86.18
2018-05-23T07:46:05.637Z,85.22
2018-05-23T07:47:05.567Z,84.55
2018-05-23T07:48:05.502Z,84.26
2018-05-23T07:49:05.420Z,83.69
2018-05-23T07:50:05.352Z,83.20
2018-05-23T07:51:05.278Z,83.78
2018-05-23T07:52:05.215Z,83.69
2018-05-23T07:53:05.133Z,84.26
2018-05-23T07:54:05.069Z,83.97
2018-05-23T07:55:04.993Z,82.82
2018-05-23T07:56:04.940Z,83.78
2018-05-23T07:57:04.848Z,83.78
2018-05-23T07:58:04.793Z,84.07
2018-05-23T07:59:04.701Z,84.45
2018-05-23T08:00:04.642Z,83.49
2018-05-23T08:01:04.563Z,83.01
2018-05-23T08:02:04.501Z,83.30
2018-05-23T08:03:04.432Z,83.30
2018-05-23T08:04:04.364Z,83.30
2018-05-23T08:05:04.279Z,83.30
2018-05-23T08:06:04.209Z,83.97
2018-05-23T08:07:04.134Z,83.40
2018-05-23T08:08:04.074Z,83.97
2018-05-23T08:09:03.996Z,84.36
2018-05-23T08:10:03.936Z,84.45
2018-05-23T08:11:03.854Z,83.59
2018-05-23T08:12:03.790Z,82.19
2018-05-23T08:13:03.710Z,82.92
2018-05-23T08:14:03.652Z,83.44
2018-05-23T08:15:03.567Z,84.64
2018-05-23T08:16:03.505Z,84.11
2018-05-23T08:17:03.427Z,85.36
2018-05-23T08:18:03.376Z,84.30
2018-05-23T08:19:03.280Z,83.15
2018-05-23T08:20:04.217Z,81.99
2018-05-23T08:21:03.138Z,81.42
2018-05-23T08:22:03.075Z,81.32
2018-05-23T08:23:03.001Z,81.32
2018-05-23T08:24:03.934Z,80.75
2018-05-23T08:25:02.857Z,80.75
2018-05-23T08:26:02.794Z,80.46
2018-05-23T08:27:02.714Z,80.27
2018-05-23T08:28:02.653Z,80.21
2018-05-23T08:29:02.576Z,80.07
2018-05-23T08:30:02.517Z,80.36
2018-05-23T08:31:02.433Z,80.11
2018-05-23T08:32:02.372Z,81.46
2018-05-23T08:33:02.291Z,81.27
2018-05-23T08:34:02.227Z,82.14
2018-05-23T08:35:02.146Z,81.17
2018-05-23T08:36:02.090Z,79.53
2018-05-23T08:37:02.016Z,79.73
2018-05-23T08:38:01.943Z,80.21
2018-05-23T08:39:01.867Z,79.63
2018-05-23T08:40:01.806Z,80.88
2018-05-23T08:41:01.736Z,81.65
2018-05-23T08:42:01.668Z,82.23
2018-05-23T08:43:01.592Z,82.23
2018-05-23T08:44:01.518Z,82.32
2018-05-23T08:45:01.445Z,82.42
2018-05-23T08:46:01.471Z,81.75
2018-05-23T08:47:01.315Z,81.65
2018-05-23T08:48:01.236Z,81.02
2018-05-23T08:49:01.159Z,80.63
2018-05-23T08:50:01.096Z,81.40
2018-05-23T08:51:01.019Z,79.48
2018-05-23T08:52:00.953Z,79.58
2018-05-23T08:53:00.878Z,79.10
2018-05-23T08:54:00.817Z,79.10
2018-05-23T08:55:00.828Z,79.00
2018-05-23T08:56:00.679Z,79.48
2018-05-23T08:57:00.603Z,80.83
2018-05-23T08:58:00.539Z,81.70
2018-05-23T08:59:00.455Z,80.73
2018-05-23T09:00:00.391Z,80.54
2018-05-23T09:01:00.322Z,79.48
2018-05-23T09:02:00.258Z,80.58
2018-05-23T09:03:00.176Z,80.19
2018-05-23T09:04:00.111Z,78.08
2018-05-23T09:05:00.048Z,80.48
2018-05-23T09:05:59.973Z,80.48
2018-05-23T09:06:59.894Z,78.94
2018-05-23T09:07:59.836Z,79.13
2018-05-23T09:09:00.257Z,78.85
2018-05-23T09:09:59.691Z,79.13
2018-05-23T09:10:59.616Z,77.98
2018-05-23T09:11:59.556Z,77.40
2018-05-23T09:12:59.475Z,76.25
2018-05-23T09:13:59.414Z,74.36
2018-05-23T09:14:59.339Z,74.45
2018-05-23T09:15:59.278Z,75.03
2018-05-23T09:16:59.196Z,76.03
2018-05-23T09:17:59.137Z,76.03
2018-05-23T09:18:59.056Z,76.32
2018-05-23T09:19:59.994Z,77.76
2018-05-23T09:20:58.917Z,77.19
2018-05-23T09:21:58.853Z,75.45
2018-05-23T09:22:58.779Z,75.01
2018-05-23T09:23:58.715Z,73.37
2018-05-23T09:24:58.642Z,73.50
2018-05-23T09:25:58.588Z,73.11
2018-05-23T09:26:58.501Z,73.50
2018-05-23T09:27:58.445Z,73.21
2018-05-23T09:28:58.363Z,73.73
2018-05-23T09:29:58.301Z,72.48
2018-05-23T09:30:58.224Z,72.00
2018-05-23T09:31:58.160Z,71.12
2018-05-23T09:32:58.090Z,69.68
2018-05-23T09:33:58.027Z,70.06
2018-05-23T09:34:57.949Z,71.12
2018-05-23T09:35:57.893Z,71.80
2018-05-23T09:36:57.813Z,71.16
2018-05-23T09:37:57.743Z,69.52
2018-05-23T09:38:57.689Z,68.84
2018-05-23T09:39:57.618Z,68.75
2018-05-23T09:40:57.558Z,69.81
2018-05-23T09:41:57.469Z,70.29
2018-05-23T09:42:57.412Z,70.58
2018-05-23T09:43:57.332Z,68.55
2018-05-23T09:44:57.274Z,67.20
2018-05-23T09:45:57.196Z,66.43
2018-05-23T09:46:57.134Z,67.30
2018-05-23T09:47:57.063Z,68.75
2018-05-23T09:48:57.013Z,69.81
2018-05-23T09:49:56.922Z,68.78
2018-05-23T09:50:56.860Z,67.62
2018-05-23T09:51:56.790Z,68.01
2018-05-23T09:52:56.730Z,67.24
2018-05-23T09:53:56.658Z,66.46
2018-05-23T09:54:56.610Z,65.30
2018-05-23T09:55:56.523Z,64.43
2018-05-23T09:56:56.452Z,66.14
2018-05-23T09:57:56.388Z,65.75
2018-05-23T09:58:56.318Z,66.14
2018-05-23T09:59:56.259Z,67.30
2018-05-23T10:00:56.207Z,68.46
2018-05-23T10:01:56.115Z,69.62
2018-05-23T10:02:56.055Z,70.20
2018-05-23T10:03:55.982Z,69.81
2018-05-23T10:04:55.958Z,68.46
2018-05-23T10:05:55.843Z,68.46
2018-05-23T10:06:55.789Z,69.71
2018-05-23T10:07:55.735Z,70.20
2018-05-23T10:09:03.324Z,70.23
2018-05-23T10:09:55.577Z,70.62
2018-05-23T10:10:55.514Z,70.65
2018-05-23T10:11:55.434Z,69.30
2018-05-23T10:12:55.386Z,68.56
2018-05-23T10:13:55.307Z,68.08
2018-05-23T10:14:55.244Z,69.04
2018-05-23T10:15:55.165Z,66.85
2018-05-23T10:16:55.108Z,64.92
2018-05-23T10:17:55.034Z,62.40
2018-05-23T10:18:54.970Z,62.50
2018-05-23T10:19:54.892Z,61.27
2018-05-23T10:20:54.830Z,61.18
2018-05-23T10:21:54.787Z,60.01
2018-05-23T10:22:54.703Z,60.59
2018-05-23T10:23:54.626Z,58.98
2018-05-23T10:24:54.572Z,61.30
2018-05-23T10:25:54.495Z,61.79
2018-05-23T10:26:55.430Z,61.69
2018-05-23T10:27:54.356Z,59.27
2018-05-23T10:28:54.298Z,58.75
2018-05-23T10:29:54.221Z,58.07
2018-05-23T10:30:54.169Z,58.85
2018-05-23T10:31:54.097Z,59.53
2018-05-23T10:32:54.032Z,59.33
2018-05-23T10:33:53.957Z,59.91
2018-05-23T10:34:53.907Z,59.98
2018-05-23T10:35:53.824Z,61.24
2018-05-23T10:36:53.759Z,60.14
2018-05-23T10:37:53.689Z,60.14
2018-05-23T10:38:53.634Z,61.11
2018-05-23T10:39:53.557Z,60.14
2018-05-23T10:40:53.498Z,61.69
2018-05-23T10:41:53.434Z,60.60
2018-05-23T10:42:53.367Z,61.47
2018-05-23T10:43:53.291Z,61.76
2018-05-23T10:44:53.231Z,61.66
2018-05-23T10:45:53.155Z,61.57
2018-05-23T10:46:53.105Z,60.69
2018-05-23T10:47:53.025Z,60.89
2018-05-23T10:48:52.972Z,61.50
2018-05-23T10:49:52.896Z,61.79
2018-05-23T10:50:52.835Z,61.21
2018-05-23T10:51:52.759Z,60.95
2018-05-23T10:52:52.707Z,60.63
2018-05-23T10:53:52.631Z,60.44
2018-05-23T10:54:52.573Z,60.63
2018-05-23T10:55:52.502Z,61.50
2018-05-23T10:56:52.448Z,60.82
2018-05-23T10:57:52.374Z,60.14
2018-05-23T10:58:52.303Z,59.95
2018-05-23T10:59:52.238Z,60.24
2018-05-23T11:00:52.176Z,61.11
2018-05-23T11:01:52.099Z,60.24
2018-05-23T11:02:52.070Z,63.14
2018-05-23T11:03:51.974Z,62.76
2018-05-23T11:04:51.922Z,60.24
2018-05-23T11:05:51.877Z,59.47
2018-05-23T11:06:51.781Z,58.60
2018-05-23T11:07:51.704Z,59.25
2018-05-23T11:08:51.659Z,59.83
2018-05-23T11:09:51.574Z,59.25
2018-05-23T11:10:51.515Z,60.41
2018-05-23T11:11:51.445Z,59.34
2018-05-23T11:12:51.392Z,59.63
2018-05-23T11:13:51.309Z,59.05
2018-05-23T11:14:51.316Z,60.41
2018-05-23T11:15:51.182Z,60.02
2018-05-23T11:16:51.120Z,58.37
2018-05-23T11:17:51.046Z,58.47
2018-05-23T11:18:50.985Z,58.37
2018-05-23T11:19:50.918Z,58.95
2018-05-23T11:20:50.856Z,59.44
2018-05-23T11:21:50.780Z,58.67
2018-05-23T11:22:50.720Z,59.73
2018-05-23T11:23:50.649Z,61.11
2018-05-23T11:24:50.670Z,61.50
2018-05-23T11:25:55.212Z,61.50
2018-05-23T11:26:50.481Z,59.47
2018-05-23T11:27:50.381Z,59.08
2018-05-23T11:28:50.393Z,59.21
2018-05-23T11:29:50.324Z,59.18
2018-05-23T11:30:50.302Z,60.82
2018-05-23T11:31:50.124Z,61.92
2018-05-23T11:32:50.118Z,62.50
2018-05-23T11:33:49.999Z,61.92
2018-05-23T11:34:50.948Z,60.57
2018-05-23T11:35:49.867Z,61.33
2018-05-23T11:36:49.839Z,61.53
2018-05-23T11:37:49.724Z,62.59
2018-05-23T11:38:49.750Z,61.85
2018-05-23T11:39:49.598Z,61.08
2018-05-23T11:40:49.565Z,61.56
2018-05-23T11:41:49.470Z,61.46
2018-05-23T11:42:49.473Z,60.78
2018-05-23T11:43:49.351Z,60.69
2018-05-23T11:44:49.389Z,60.21
2018-05-23T11:45:49.229Z,60.50
2018-05-23T11:46:49.202Z,60.30
2018-05-23T11:47:49.068Z,58.56
2018-05-23T11:48:49.104Z,59.05
2018-05-23T11:49:48.925Z,58.95
2018-05-23T11:50:48.918Z,60.69
2018-05-23T11:51:48.830Z,60.78
2018-05-23T11:52:48.819Z,59.91
2018-05-23T11:53:48.670Z,60.30
2018-05-23T11:54:48.733Z,60.21
2018-05-23T11:55:48.534Z,60.21
2018-05-23T11:56:48.542Z,59.33
2018-05-23T11:57:48.737Z,60.21
2018-05-23T11:58:48.461Z,62.27
2018-05-23T11:59:48.274Z,61.49
2018-05-23T12:00:48.282Z,60.33
2018-05-23T12:01:48.157Z,58.72
2018-05-23T12:02:48.170Z,59.10
2018-05-23T12:03:48.013Z,59.10
2018-05-23T12:04:48.079Z,60.94
2018-05-23T12:05:47.891Z,60.85
2018-05-23T12:06:47.896Z,60.20
2018-05-23T12:07:47.760Z,58.74
2018-05-23T12:08:47.785Z,59.91
2018-05-23T12:09:47.622Z,57.87
2018-05-23T12:10:47.616Z,55.87
2018-05-23T12:11:47.494Z,55.38
2018-05-23T12:12:47.541Z,58.67
2018-05-23T12:13:47.354Z,59.06
2018-05-23T12:14:47.341Z,59.67
2018-05-23T12:15:47.224Z,59.58
2018-05-23T12:16:47.249Z,59.77
2018-05-23T12:17:47.101Z,57.18
2018-05-23T12:18:47.053Z,54.72
2018-05-23T12:19:46.960Z,54.92
2018-05-23T12:20:46.974Z,53.66
2018-05-23T12:21:46.836Z,54.82
2018-05-23T12:22:46.879Z,57.15
2018-05-23T12:23:46.703Z,57.47
2018-05-23T12:24:46.681Z,57.06
2018-05-23T12:25:46.580Z,57.64
2018-05-23T12:26:46.600Z,58.22
2018-05-23T12:27:46.448Z,59.03
2018-05-23T12:28:46.431Z,57.96
2018-05-23T12:29:46.320Z,57.67
2018-05-23T12:30:46.253Z,58.64
2018-05-23T12:31:46.230Z,58.34
2018-05-23T12:32:46.114Z,56.70
2018-05-23T12:33:46.129Z,54.58
2018-05-23T12:34:46.000Z,54.17
2018-05-23T12:35:45.943Z,54.56
2018-05-23T12:36:45.871Z,55.63
2018-05-23T12:37:45.856Z,53.69
2018-05-23T12:38:45.728Z,54.56
2018-05-23T12:39:45.767Z,55.14
2018-05-23T12:40:45.608Z,54.92
2018-05-23T12:41:45.586Z,54.92
2018-05-23T12:42:45.473Z,56.67
2018-05-23T12:43:45.487Z,55.69
2018-05-23T12:44:45.335Z,58.22
2018-05-23T12:45:45.400Z,56.45
2018-05-23T12:46:45.213Z,56.45
2018-05-23T12:47:45.203Z,57.29
2018-05-23T12:48:45.084Z,57.58
2018-05-23T12:49:45.123Z,55.64
2018-05-23T12:50:44.964Z,56.83
2018-05-23T12:51:45.952Z,57.12